MSC Luisa — H9XU — position and weather

sailwx.info

Track history (hours):
 
Tides and Currents Weather Stations Pressure Air Temp Water Temp Dewpoint Dewpoint Depression Visibility Wind Speed Wind Dir Waves Ship Positions

MSC Luisa

Last reported at 2016-Apr-27 06:20 UTC. Time now 2016-May-02 08:15 UTC.
Position S 22°54' W 041°40'.

Length 300 m; draft 13.1 m.

Type: Ship. MMSI: 355308000.

Date/timePositionNaut miles runAvg speedWind from/ knotsBaromVisibWave heightAir tempDewpointWater temp
2016-Apr-27 06:20S 22°54' W 041°40'2220.2
2016-Apr-27 05:15S 23°08' W 041°58'1620.0
2016-Apr-27 04:27S 23°15' W 042°14'18720.4
2016-Apr-26 19:19S 24°19' W 045°26'1520.6
2016-Apr-26 18:33S 24°21' W 045°42'2120.6
2016-Apr-26 17:34S 24°22' W 046°05'1918.7
2016-Apr-26 16:33S 24°12' W 046°22'1212.4
2016-Apr-26 15:33S 23°60' W 046°19'4 4.2
2016-Apr-26 14:32S 23°55' W 046°20'0 0.4
2016-Apr-26 13:20S 23°55' W 046°21'0 0.0
2016-Apr-26 12:32S 23°55' W 046°21'0 0.0
2016-Apr-26 11:13S 23°55' W 046°21'0 0.0
2016-Apr-26 00:08S 23°55' W 046°21'0 0.0
2016-Apr-25 23:29S 23°55' W 046°21'0 0.0
2016-Apr-25 21:16S 23°55' W 046°21'0 0.0
2016-Apr-25 20:31S 23°55' W 046°21'0 0.0
2016-Apr-25 18:27S 23°55' W 046°21'0 0.0
2016-Apr-25 17:33S 23°55' W 046°21'0 0.0
2016-Apr-25 13:33S 23°55' W 046°21'3 3.3
2016-Apr-25 12:33S 23°58' W 046°18'7 7.3
2016-Apr-25 11:33S 24°04' W 046°22'6 5.3
2016-Apr-25 10:27S 24°09' W 046°19'0 0.0
2016-Apr-25 09:32S 24°09' W 046°19'0 0.0
2016-Apr-25 08:26S 24°09' W 046°19'0 0.0
2016-Apr-25 07:29S 24°09' W 046°19'0 0.0
2016-Apr-25 06:31S 24°09' W 046°19'0 0.0
2016-Apr-25 05:28S 24°09' W 046°19'0 0.0
2016-Apr-25 04:27S 24°09' W 046°19'0 0.0
2016-Apr-25 03:33S 24°09' W 046°19'0 0.0
2016-Apr-25 02:32S 24°09' W 046°19'0 0.0
2016-Apr-25 01:32S 24°09' W 046°19'0 0.0
2016-Apr-25 00:29S 24°09' W 046°19'0 0.0
2016-Apr-24 23:28S 24°09' W 046°19'0 0.0
2016-Apr-24 22:25S 24°09' W 046°19'0 0.0
2016-Apr-24 21:27S 24°09' W 046°19'0 0.0
2016-Apr-24 20:27S 24°09' W 046°19'0 0.0
2016-Apr-24 19:29S 24°09' W 046°19'0 0.0
2016-Apr-24 18:29S 24°09' W 046°19'0 0.0
2016-Apr-24 17:22S 24°09' W 046°19'0 0.0
2016-Apr-24 16:13S 24°09' W 046°19'0 0.0
2016-Apr-24 15:31S 24°09' W 046°19'0 0.0
2016-Apr-24 14:18S 24°09' W 046°19'0 0.0
2016-Apr-24 13:18S 24°09' W 046°19'0 0.0
2016-Apr-24 12:32S 24°09' W 046°19'0 0.0
2016-Apr-24 11:23S 24°09' W 046°19'0 0.0
2016-Apr-24 10:26S 24°09' W 046°19'0 0.0
2016-Apr-24 09:31S 24°09' W 046°19'0 0.0
2016-Apr-24 08:31S 24°09' W 046°19'0 0.0
2016-Apr-24 07:30S 24°09' W 046°19'0 0.0
2016-Apr-24 06:27S 24°09' W 046°19'0 0.0
2016-Apr-24 05:32S 24°09' W 046°19'0 0.0
2016-Apr-24 04:32S 24°09' W 046°19'0 0.0
2016-Apr-24 03:28S 24°09' W 046°19'0 0.0
2016-Apr-24 02:31S 24°09' W 046°19'0 0.0
2016-Apr-24 01:22S 24°09' W 046°19'0 0.0
2016-Apr-24 00:33S 24°09' W 046°19'0 0.0
2016-Apr-23 23:30S 24°09' W 046°19'0 0.0
2016-Apr-23 22:32S 24°09' W 046°19'0 0.0
2016-Apr-23 21:29S 24°09' W 046°19'0 0.0
2016-Apr-23 20:31S 24°09' W 046°19'0 0.0
2016-Apr-23 19:31S 24°09' W 046°19'0 0.0
2016-Apr-23 18:31S 24°09' W 046°19'0 0.0
2016-Apr-23 17:33S 24°09' W 046°19'0 0.0
2016-Apr-23 16:33S 24°09' W 046°19'0 0.0
2016-Apr-23 15:32S 24°09' W 046°19'0 0.0
2016-Apr-23 14:29S 24°09' W 046°19'0 0.0
2016-Apr-23 13:31S 24°09' W 046°19'0 0.0
2016-Apr-23 12:31S 24°09' W 046°19'0 0.0
2016-Apr-23 11:18S 24°09' W 046°19'0 0.0
2016-Apr-23 10:24S 24°09' W 046°19'0 0.0
2016-Apr-23 09:27S 24°09' W 046°19'0 0.0
2016-Apr-23 08:32S 24°09' W 046°19'0 0.0
2016-Apr-23 07:32S 24°09' W 046°19'0 0.0
2016-Apr-23 06:25S 24°09' W 046°19'0 0.0
2016-Apr-23 05:31S 24°09' W 046°19'0 0.0
2016-Apr-23 04:31S 24°09' W 046°19'0 0.0
2016-Apr-23 03:30S 24°09' W 046°19'2 1.7
2016-Apr-23 02:33S 24°10' W 046°21'1212.2
2016-Apr-23 01:33S 24°21' W 046°27'1313.2
2016-Apr-23 00:33S 24°33' W 046°32'1313.2
2016-Apr-22 23:33S 24°44' W 046°41'1313.3
2016-Apr-22 22:33S 24°54' W 046°50'1413.5
2016-Apr-22 21:29S 25°06' W 046°60'13513.1
2016-Apr-22 11:09S 26°52' W 048°32'7 0.6
2016-Apr-21 22:33S 26°54' W 048°40'0 0.0
2016-Apr-21 21:27S 26°54' W 048°40'0 0.0
2016-Apr-21 16:19S 26°54' W 048°40'0 0.1
2016-Apr-21 15:32S 26°54' W 048°40'5 5.6
2016-Apr-21 14:33S 26°55' W 048°34'1 1.0
2016-Apr-21 13:10S 26°57' W 048°34'0 0.0
2016-Apr-21 12:10S 26°57' W 048°34'0 0.0
2016-Apr-21 11:22S 26°57' W 048°34'0 0.0
2016-Apr-21 10:33S 26°57' W 048°34'0 0.0
2016-Apr-21 09:27S 26°57' W 048°34'0 0.0
2016-Apr-21 07:23S 26°57' W 048°34'0 0.0
2016-Apr-21 01:20S 26°57' W 048°34'0 0.0
2016-Apr-21 00:20S 26°57' W 048°34'0 0.0
2016-Apr-20 23:22S 26°57' W 048°34'0 0.0
2016-Apr-20 22:28S 26°57' W 048°34'0 0.0
2016-Apr-20 20:21S 26°57' W 048°34'0 0.0
2016-Apr-20 19:33S 26°57' W 048°34'0 0.0
2016-Apr-20 18:17S 26°57' W 048°34'0 0.0
2016-Apr-20 17:23S 26°57' W 048°34'0 0.0
2016-Apr-20 16:22S 26°57' W 048°34'3 3.2
2016-Apr-20 15:33S 26°58' W 048°31'7 7.4
2016-Apr-20 14:33S 26°59' W 048°23'10 9.5
2016-Apr-20 13:29S 26°60' W 048°12'9 9.8
2016-Apr-20 12:33S 27°09' W 048°11'1010.0
2016-Apr-20 11:33S 27°19' W 048°11'1010.3
2016-Apr-20 10:33S 27°29' W 048°11'10 9.7
2016-Apr-20 09:33S 27°39' W 048°11'10 9.6
2016-Apr-20 08:34S 27°48' W 048°11'10 9.6
2016-Apr-20 07:33S 27°58' W 048°11'10 9.7
2016-Apr-20 06:33S 28°08' W 048°11'10 9.8
2016-Apr-20 05:34S 28°18' W 048°11'10 9.8
2016-Apr-20 04:33S 28°26' W 048°16'10 9.7
2016-Apr-20 03:33S 28°35' W 048°22'10 9.9
2016-Apr-20 02:33S 28°43' W 048°28'1010.0
2016-Apr-20 01:33S 28°51' W 048°35'1010.3
2016-Apr-20 00:33S 29°00' W 048°41'1010.0
2016-Apr-19 23:33S 29°08' W 048°48'10 9.6
2016-Apr-19 22:33S 29°16' W 048°53'9 9.4
2016-Apr-19 21:33S 29°24' W 049°00'10 9.6
2016-Apr-19 20:33S 29°31' W 049°06'10 9.9
2016-Apr-19 19:33S 29°40' W 049°13'1010.0
2016-Apr-19 18:33S 29°48' W 049°19'1010.0
2016-Apr-19 17:32S 29°56' W 049°26'1310.1
2016-Apr-19 16:13S 30°07' W 049°34'6 9.7
2016-Apr-19 15:33S 30°13' W 049°39'10 9.6
2016-Apr-19 14:33S 30°21' W 049°45'10 9.9
2016-Apr-19 13:32S 30°29' W 049°51'  
Track history (hours):
 
Tides and Currents Weather Stations Pressure Air Temp Water Temp Dewpoint Dewpoint Depression Visibility Wind Speed Wind Dir Waves Ship Positions

MSC Luisa

Last reported at 2016-Apr-27 06:20 UTC. Time now 2016-May-02 08:15 UTC.
Position S 22°54' W 041°40'.

Length 300 m; draft 13.1 m.

Type: Ship. MMSI: 355308000.

Date/timePositionNaut miles runAvg speedWind from/ knotsBaromVisibWave heightAir tempDewpointWater temp
2016-Apr-27 06:20S 22°54' W 041°40'2220.2
2016-Apr-27 05:15S 23°08' W 041°58'1620.0
2016-Apr-27 04:27S 23°15' W 042°14'18720.4
2016-Apr-26 19:19S 24°19' W 045°26'1520.6
2016-Apr-26 18:33S 24°21' W 045°42'2120.6
2016-Apr-26 17:34S 24°22' W 046°05'1918.7
2016-Apr-26 16:33S 24°12' W 046°22'1212.4
2016-Apr-26 15:33S 23°60' W 046°19'4 4.2
2016-Apr-26 14:32S 23°55' W 046°20'0 0.4
2016-Apr-26 13:20S 23°55' W 046°21'0 0.0
2016-Apr-26 12:32S 23°55' W 046°21'0 0.0
2016-Apr-26 11:13S 23°55' W 046°21'0 0.0
2016-Apr-26 00:08S 23°55' W 046°21'0 0.0
2016-Apr-25 23:29S 23°55' W 046°21'0 0.0
2016-Apr-25 21:16S 23°55' W 046°21'0 0.0
2016-Apr-25 20:31S 23°55' W 046°21'0 0.0
2016-Apr-25 18:27S 23°55' W 046°21'0 0.0
2016-Apr-25 17:33S 23°55' W 046°21'0 0.0
2016-Apr-25 13:33S 23°55' W 046°21'3 3.3
2016-Apr-25 12:33S 23°58' W 046°18'7 7.3
2016-Apr-25 11:33S 24°04' W 046°22'6 5.3
2016-Apr-25 10:27S 24°09' W 046°19'0 0.0
2016-Apr-25 09:32S 24°09' W 046°19'0 0.0
2016-Apr-25 08:26S 24°09' W 046°19'0 0.0
2016-Apr-25 07:29S 24°09' W 046°19'0 0.0
2016-Apr-25 06:31S 24°09' W 046°19'0 0.0
2016-Apr-25 05:28S 24°09' W 046°19'0 0.0
2016-Apr-25 04:27S 24°09' W 046°19'0 0.0
2016-Apr-25 03:33S 24°09' W 046°19'0 0.0
2016-Apr-25 02:32S 24°09' W 046°19'0 0.0
2016-Apr-25 01:32S 24°09' W 046°19'0 0.0
2016-Apr-25 00:29S 24°09' W 046°19'0 0.0
2016-Apr-24 23:28S 24°09' W 046°19'0 0.0
2016-Apr-24 22:25S 24°09' W 046°19'0 0.0
2016-Apr-24 21:27S 24°09' W 046°19'0 0.0
2016-Apr-24 20:27S 24°09' W 046°19'0 0.0
2016-Apr-24 19:29S 24°09' W 046°19'0 0.0
2016-Apr-24 18:29S 24°09' W 046°19'0 0.0
2016-Apr-24 17:22S 24°09' W 046°19'0 0.0
2016-Apr-24 16:13S 24°09' W 046°19'0 0.0
2016-Apr-24 15:31S 24°09' W 046°19'0 0.0
2016-Apr-24 14:18S 24°09' W 046°19'0 0.0
2016-Apr-24 13:18S 24°09' W 046°19'0 0.0
2016-Apr-24 12:32S 24°09' W 046°19'0 0.0
2016-Apr-24 11:23S 24°09' W 046°19'0 0.0
2016-Apr-24 10:26S 24°09' W 046°19'0 0.0
2016-Apr-24 09:31S 24°09' W 046°19'0 0.0
2016-Apr-24 08:31S 24°09' W 046°19'0 0.0
2016-Apr-24 07:30S 24°09' W 046°19'0 0.0
2016-Apr-24 06:27S 24°09' W 046°19'0 0.0
2016-Apr-24 05:32S 24°09' W 046°19'0 0.0
2016-Apr-24 04:32S 24°09' W 046°19'0 0.0
2016-Apr-24 03:28S 24°09' W 046°19'0 0.0
2016-Apr-24 02:31S 24°09' W 046°19'0 0.0
2016-Apr-24 01:22S 24°09' W 046°19'0 0.0
2016-Apr-24 00:33S 24°09' W 046°19'0 0.0
2016-Apr-23 23:30S 24°09' W 046°19'0 0.0
2016-Apr-23 22:32S 24°09' W 046°19'0 0.0
2016-Apr-23 21:29S 24°09' W 046°19'0 0.0
2016-Apr-23 20:31S 24°09' W 046°19'0 0.0
2016-Apr-23 19:31S 24°09' W 046°19'0 0.0
2016-Apr-23 18:31S 24°09' W 046°19'0 0.0
2016-Apr-23 17:33S 24°09' W 046°19'0 0.0
2016-Apr-23 16:33S 24°09' W 046°19'0 0.0
2016-Apr-23 15:32S 24°09' W 046°19'0 0.0
2016-Apr-23 14:29S 24°09' W 046°19'0 0.0
2016-Apr-23 13:31S 24°09' W 046°19'0 0.0
2016-Apr-23 12:31S 24°09' W 046°19'0 0.0
2016-Apr-23 11:18S 24°09' W 046°19'0 0.0
2016-Apr-23 10:24S 24°09' W 046°19'0 0.0
2016-Apr-23 09:27S 24°09' W 046°19'0 0.0
2016-Apr-23 08:32S 24°09' W 046°19'0 0.0
2016-Apr-23 07:32S 24°09' W 046°19'0 0.0
2016-Apr-23 06:25S 24°09' W 046°19'0 0.0
2016-Apr-23 05:31S 24°09' W 046°19'0 0.0
2016-Apr-23 04:31S 24°09' W 046°19'0 0.0
2016-Apr-23 03:30S 24°09' W 046°19'2 1.7
2016-Apr-23 02:33S 24°10' W 046°21'1212.2
2016-Apr-23 01:33S 24°21' W 046°27'1313.2
2016-Apr-23 00:33S 24°33' W 046°32'1313.2
2016-Apr-22 23:33S 24°44' W 046°41'1313.3
2016-Apr-22 22:33S 24°54' W 046°50'1413.5
2016-Apr-22 21:29S 25°06' W 046°60'13513.1
2016-Apr-22 11:09S 26°52' W 048°32'7 0.6
2016-Apr-21 22:33S 26°54' W 048°40'0 0.0
2016-Apr-21 21:27S 26°54' W 048°40'0 0.0
2016-Apr-21 16:19S 26°54' W 048°40'0 0.1
2016-Apr-21 15:32S 26°54' W 048°40'5 5.6
2016-Apr-21 14:33S 26°55' W 048°34'1 1.0
2016-Apr-21 13:10S 26°57' W 048°34'0 0.0
2016-Apr-21 12:10S 26°57' W 048°34'0 0.0
2016-Apr-21 11:22S 26°57' W 048°34'0 0.0
2016-Apr-21 10:33S 26°57' W 048°34'0 0.0
2016-Apr-21 09:27S 26°57' W 048°34'0 0.0
2016-Apr-21 07:23S 26°57' W 048°34'0 0.0
2016-Apr-21 01:20S 26°57' W 048°34'0 0.0
2016-Apr-21 00:20S 26°57' W 048°34'0 0.0
2016-Apr-20 23:22S 26°57' W 048°34'0 0.0
2016-Apr-20 22:28S 26°57' W 048°34'0 0.0
2016-Apr-20 20:21S 26°57' W 048°34'0 0.0
2016-Apr-20 19:33S 26°57' W 048°34'0 0.0
2016-Apr-20 18:17S 26°57' W 048°34'0 0.0
2016-Apr-20 17:23S 26°57' W 048°34'0 0.0
2016-Apr-20 16:22S 26°57' W 048°34'3 3.2
2016-Apr-20 15:33S 26°58' W 048°31'7 7.4
2016-Apr-20 14:33S 26°59' W 048°23'10 9.5
2016-Apr-20 13:29S 26°60' W 048°12'9 9.8
2016-Apr-20 12:33S 27°09' W 048°11'1010.0
2016-Apr-20 11:33S 27°19' W 048°11'1010.3
2016-Apr-20 10:33S 27°29' W 048°11'10 9.7
2016-Apr-20 09:33S 27°39' W 048°11'10 9.6
2016-Apr-20 08:34S 27°48' W 048°11'10 9.6
2016-Apr-20 07:33S 27°58' W 048°11'10 9.7
2016-Apr-20 06:33S 28°08' W 048°11'10 9.8
2016-Apr-20 05:34S 28°18' W 048°11'10 9.8
2016-Apr-20 04:33S 28°26' W 048°16'10 9.7
2016-Apr-20 03:33S 28°35' W 048°22'10 9.9
2016-Apr-20 02:33S 28°43' W 048°28'1010.0
2016-Apr-20 01:33S 28°51' W 048°35'1010.3
2016-Apr-20 00:33S 29°00' W 048°41'1010.0
2016-Apr-19 23:33S 29°08' W 048°48'10 9.6
2016-Apr-19 22:33S 29°16' W 048°53'9 9.4
2016-Apr-19 21:33S 29°24' W 049°00'10 9.6
2016-Apr-19 20:33S 29°31' W 049°06'10 9.9
2016-Apr-19 19:33S 29°40' W 049°13'1010.0
2016-Apr-19 18:33S 29°48' W 049°19'1010.0
2016-Apr-19 17:32S 29°56' W 049°26'1310.1
2016-Apr-19 16:13S 30°07' W 049°34'6 9.7
2016-Apr-19 15:33S 30°13' W 049°39'10 9.6
2016-Apr-19 14:33S 30°21' W 049°45'10 9.9
2016-Apr-19 13:32S 30°29' W 049°51'  

Dump ship's entire track history